Pompano Beach, FL (33064)

11:02 AM EST on February 07, 2016 (GMT -0500)
Lighthouse Point Estates | | Change Station
CLOSE
Current Station
Personal Weather Station
Location: Lighthouse Point, FL
Elevation: 4 ft
Nearby Weather Stations

Elev 4 ft 26.27 °N, 80.10 °W | Updated 10 seconds ago

Partly Cloudy
Partly Cloudy
56.6 °F
Feels Like 56.6 °F
N
1.0
Wind Variable Wind from West
Gusts 12.0 mph

Today
High -- | Low -- °F
--% Chance of Precip.
Yesterday
High -- | Low -- °F
Precip. -- in
Pressure 30.05 in
Visibility 10.0 miles
Clouds Scattered Clouds 1900 ft
Mostly Cloudy 7500 ft
Mostly Cloudy 16000 ft
Dew Point 50 °F
Humidity 78%
Rainfall 0.11 in
Snow Depth Not available.
7:02 AM 6:07 PM
Waning Crescent, 1% visible
METAR KPMP 071553Z 27018KT 10SM SCT019 BKN075 BKN160 13/09 A3004 RMK AO2 SLP174 T01330089
Pressure 30.05 in
Visibility 10.0 miles
Clouds Scattered Clouds 1900 ft
Mostly Cloudy 7500 ft
Mostly Cloudy 16000 ft
Dew Point 50 °F
Humidity 78%
Rainfall 0.11 in
Snow Depth Not available.
7:02 AM 6:07 PM
Waning Crescent, 1% visible
METAR KPMP 071553Z 27018KT 10SM SCT019 BKN075 BKN160 13/09 A3004 RMK AO2 SLP174 T01330089

10-Day Weather Forecast

Almanac

Astronomy

Feb. 07, 2016 Rise Set
Actual Time
Civil Twilight
Nautical Twilight
Astronomical Twilight
Moon
Length of Visible Light
Length of Day
Tomorrow will be .
, % of the Moon is Illuminated

Today's Extremes

State Highs State Lows

Community

WunderPhotos

Upload Photos

1,891,218 photos uploaded!

WunderBlog® & News

Nearby

Air Quality

  Air Quality AQ Index Pollutant
Not available.

Snow Depth

Station Depth Elevation

Earthquake Activity

City Distance Mag. Time & Date
Minimum magnitude displayed is 2.5.

Coastal Water Temperatures

Place Temperature

Stations

Nearby Weather Stations

Station Location Temp. Windchill Dew Point Humidity Wind Precip. Elev Updated Type
                   

Watches & Warnings

There are currently no watches in effect.